createdAt,value
2022-10-06T00:01:05.226Z,14.06
2022-10-06T00:03:31.798Z,14.07
2022-10-06T00:06:02.141Z,14.08
2022-10-06T00:08:31.089Z,14.09
2022-10-06T00:10:57.796Z,14.09
2022-10-06T00:13:24.817Z,14.11
2022-10-06T00:15:51.669Z,14.11
2022-10-06T00:18:18.278Z,14.11
2022-10-06T00:20:44.735Z,14.11
2022-10-06T00:23:11.527Z,14.10
2022-10-06T00:25:38.823Z,14.11
2022-10-06T00:28:05.676Z,14.11
2022-10-06T00:30:32.406Z,14.10
2022-10-06T00:33:00.879Z,14.10
2022-10-06T00:35:33.842Z,14.11
2022-10-06T00:38:01.110Z,14.12
2022-10-06T00:40:27.661Z,14.12
2022-10-06T00:43:01.332Z,14.13
2022-10-06T00:45:39.664Z,14.14
2022-10-06T00:48:10.773Z,14.14
2022-10-06T00:50:37.929Z,14.13
2022-10-06T00:53:04.451Z,14.13
2022-10-06T00:55:31.220Z,14.14
2022-10-06T00:57:57.852Z,14.13
2022-10-06T01:00:24.358Z,14.14
2022-10-06T01:02:57.504Z,14.14
2022-10-06T01:05:27.573Z,14.13
2022-10-06T01:07:54.128Z,14.13
2022-10-06T01:10:21.034Z,14.13
2022-10-06T01:12:48.234Z,14.14
2022-10-06T01:15:15.675Z,14.13
2022-10-06T01:17:44.500Z,14.13
2022-10-06T01:20:12.991Z,14.13
2022-10-06T01:22:43.464Z,14.13
2022-10-06T01:25:11.674Z,14.13
2022-10-06T01:27:38.966Z,14.12
2022-10-06T01:30:09.656Z,14.12
2022-10-06T01:32:37.781Z,14.12
2022-10-06T01:35:05.586Z,14.12
2022-10-06T01:37:32.106Z,14.12
2022-10-06T01:39:59.074Z,14.11
2022-10-06T01:42:25.779Z,14.10
2022-10-06T01:44:52.510Z,14.10
2022-10-06T01:47:19.129Z,14.09
2022-10-06T01:49:45.587Z,14.08
2022-10-06T01:52:12.474Z,14.08
2022-10-06T01:54:39.247Z,14.07
2022-10-06T01:57:09.098Z,14.06
2022-10-06T01:59:35.674Z,14.05
2022-10-06T02:02:02.457Z,14.03
2022-10-06T02:04:29.063Z,14.02
2022-10-06T02:06:55.715Z,14.01
2022-10-06T02:09:23.559Z,14.01
2022-10-06T02:11:50.182Z,14.00
2022-10-06T02:14:18.140Z,13.98
2022-10-06T02:16:45.370Z,13.97
2022-10-06T02:19:11.874Z,13.96
2022-10-06T02:21:38.957Z,13.94
2022-10-06T02:24:05.789Z,13.93
2022-10-06T02:26:32.547Z,13.91
2022-10-06T02:28:59.277Z,13.90
2022-10-06T02:31:26.086Z,13.87
2022-10-06T02:33:52.852Z,13.86
2022-10-06T02:36:19.581Z,13.85
2022-10-06T02:38:46.353Z,13.83
2022-10-06T02:41:12.806Z,13.82
2022-10-06T02:43:39.606Z,13.81
2022-10-06T02:46:08.442Z,13.80
2022-10-06T02:48:35.077Z,13.78
2022-10-06T02:51:09.771Z,13.76
2022-10-06T02:53:36.547Z,13.75
2022-10-06T02:56:05.497Z,13.72
2022-10-06T02:58:32.666Z,13.71
2022-10-06T03:03:57.154Z,13.68
2022-10-06T03:06:25.293Z,13.68
2022-10-06T03:08:56.417Z,13.68
2022-10-06T03:11:30.232Z,13.67
2022-10-06T03:13:57.210Z,13.66
2022-10-06T03:16:25.494Z,13.66
2022-10-06T03:18:54.196Z,13.66
2022-10-06T03:21:22.527Z,13.66
2022-10-06T03:23:49.834Z,13.66
2022-10-06T03:26:17.979Z,13.65
2022-10-06T03:28:44.999Z,13.65
2022-10-06T03:31:11.742Z,13.65
2022-10-06T03:33:38.566Z,13.64
2022-10-06T03:36:09.699Z,13.63
2022-10-06T03:38:36.461Z,13.62
2022-10-06T03:41:06.754Z,13.61
2022-10-06T03:43:33.882Z,13.59
2022-10-06T03:46:03.524Z,13.58
2022-10-06T03:48:31.838Z,13.56
2022-10-06T03:51:19.505Z,13.56
2022-10-06T03:53:47.563Z,13.57
2022-10-06T03:56:16.546Z,13.56
2022-10-06T03:58:44.607Z,13.55
2022-10-06T04:01:14.332Z,13.55
2022-10-06T04:03:40.809Z,13.54
2022-10-06T04:06:09.737Z,13.54
2022-10-06T04:08:36.953Z,13.53
2022-10-06T04:11:16.306Z,13.51
2022-10-06T04:13:43.574Z,13.49
2022-10-06T04:16:18.369Z,13.48
2022-10-06T04:18:46.273Z,13.45
2022-10-06T04:21:13.084Z,13.44
2022-10-06T04:23:39.638Z,13.43
2022-10-06T04:26:09.941Z,13.41
2022-10-06T04:28:38.247Z,13.40
2022-10-06T04:31:07.112Z,13.39
2022-10-06T04:33:34.558Z,13.38
2022-10-06T04:36:03.226Z,13.38
2022-10-06T04:38:32.195Z,13.37
2022-10-06T04:41:13.025Z,13.36
2022-10-06T04:43:39.562Z,13.36
2022-10-06T04:46:23.973Z,13.38
2022-10-06T04:48:53.925Z,13.38
2022-10-06T04:51:21.443Z,13.39
2022-10-06T04:53:48.385Z,13.41
2022-10-06T04:56:29.789Z,13.42
2022-10-06T04:58:56.456Z,13.43
2022-10-06T05:01:24.706Z,13.44
2022-10-06T05:03:53.419Z,13.45
2022-10-06T05:06:27.766Z,13.49
2022-10-06T05:08:56.171Z,13.55
2022-10-06T05:11:25.826Z,13.71
2022-10-06T05:13:54.960Z,13.93
2022-10-06T05:16:21.867Z,14.20
2022-10-06T05:18:48.386Z,14.54
2022-10-06T05:21:19.640Z,14.95
2022-10-06T05:23:46.400Z,15.39
2022-10-06T05:26:14.509Z,15.86
2022-10-06T05:28:41.267Z,16.42
2022-10-06T05:31:11.670Z,16.99
2022-10-06T05:33:38.344Z,17.64
2022-10-06T05:36:06.502Z,18.33
2022-10-06T05:38:33.550Z,19.02
2022-10-06T05:41:13.679Z,19.67
2022-10-06T05:43:40.664Z,20.39
2022-10-06T05:46:09.232Z,21.06
2022-10-06T05:48:35.985Z,21.62
2022-10-06T05:51:03.890Z,21.99
2022-10-06T05:53:30.899Z,22.22
2022-10-06T05:56:05.563Z,22.26
2022-10-06T05:58:32.904Z,22.29
2022-10-06T06:01:29.771Z,22.49
2022-10-06T06:04:00.283Z,22.65
2022-10-06T06:06:34.596Z,22.89
2022-10-06T06:09:08.953Z,23.26
2022-10-06T06:11:37.473Z,23.67
2022-10-06T06:14:08.757Z,24.02
2022-10-06T06:16:37.110Z,23.97
2022-10-06T06:19:04.037Z,23.74
2022-10-06T06:21:30.663Z,23.47
2022-10-06T06:23:57.288Z,23.15
2022-10-06T06:26:28.882Z,22.84
2022-10-06T06:28:57.155Z,22.53
2022-10-06T06:31:27.104Z,22.29
2022-10-06T06:33:54.987Z,22.18
2022-10-06T06:36:25.939Z,22.08
2022-10-06T06:38:56.476Z,22.34
2022-10-06T06:41:24.363Z,23.02
2022-10-06T06:43:51.209Z,23.42
2022-10-06T06:46:18.793Z,23.57
2022-10-06T06:48:47.225Z,23.76
2022-10-06T06:51:13.877Z,23.97
2022-10-06T06:53:40.941Z,24.08
2022-10-06T06:56:08.599Z,24.18
2022-10-06T06:58:35.641Z,25.01
2022-10-06T07:01:11.203Z,26.34
2022-10-06T07:03:56.479Z,27.38
2022-10-06T07:06:28.095Z,27.67
2022-10-06T07:08:55.350Z,27.58
2022-10-06T07:11:23.503Z,27.37
2022-10-06T07:13:54.913Z,27.06
2022-10-06T07:16:40.781Z,26.64
2022-10-06T07:19:26.232Z,26.19
2022-10-06T07:22:11.816Z,25.69
2022-10-06T07:24:57.500Z,25.15
2022-10-06T07:27:24.263Z,24.67
2022-10-06T07:29:54.469Z,24.34
2022-10-06T07:32:22.956Z,24.16
2022-10-06T07:34:50.141Z,24.15
2022-10-06T07:37:18.034Z,24.09
2022-10-06T07:39:45.203Z,23.91
2022-10-06T07:42:15.231Z,23.72
2022-10-06T07:44:42.270Z,23.51
2022-10-06T07:47:09.320Z,23.31
2022-10-06T07:49:35.939Z,23.14
2022-10-06T07:52:05.255Z,23.01
2022-10-06T07:54:32.299Z,22.95
2022-10-06T07:56:58.763Z,23.43
2022-10-06T07:59:25.277Z,24.31
2022-10-06T08:01:53.217Z,25.14
2022-10-06T08:04:19.737Z,25.84
2022-10-06T08:06:47.727Z,26.38
2022-10-06T08:09:14.418Z,26.79
2022-10-06T08:11:41.035Z,27.12
2022-10-06T08:14:07.482Z,27.41
2022-10-06T08:16:37.550Z,27.68
2022-10-06T08:19:05.228Z,27.99
2022-10-06T08:21:34.380Z,28.31
2022-10-06T08:24:02.251Z,28.59
2022-10-06T08:26:29.253Z,28.78
2022-10-06T08:29:03.280Z,28.98
2022-10-06T08:31:30.474Z,29.18
2022-10-06T08:33:57.313Z,29.35
2022-10-06T08:36:30.984Z,29.49
2022-10-06T08:38:58.920Z,29.62
2022-10-06T08:41:44.899Z,29.75
2022-10-06T08:44:18.934Z,29.80
2022-10-06T08:47:00.621Z,29.78
2022-10-06T08:49:37.113Z,29.81
2022-10-06T08:52:15.777Z,29.91
2022-10-06T08:54:49.388Z,30.01
2022-10-06T08:57:27.211Z,30.06
2022-10-06T08:59:54.291Z,30.08
2022-10-06T09:02:39.221Z,30.06
2022-10-06T09:05:06.624Z,30.10
2022-10-06T09:07:42.262Z,30.16
2022-10-06T09:10:49.353Z,30.21
2022-10-06T09:13:44.438Z,30.27
2022-10-06T09:16:14.674Z,30.33
2022-10-06T09:21:36.507Z,30.39
2022-10-06T09:24:07.230Z,30.36
2022-10-06T09:26:33.890Z,30.25
2022-10-06T09:29:00.782Z,30.10
2022-10-06T09:31:29.092Z,30.06
2022-10-06T09:34:04.780Z,29.93
2022-10-06T09:36:32.005Z,29.81
2022-10-06T09:38:59.466Z,29.71
2022-10-06T09:41:29.908Z,29.53
2022-10-06T09:43:58.810Z,29.28
2022-10-06T09:46:31.590Z,29.07
2022-10-06T09:49:10.249Z,28.89
2022-10-06T09:51:38.317Z,28.74
2022-10-06T09:54:14.330Z,28.62
2022-10-06T09:56:42.159Z,28.51
2022-10-06T09:59:22.642Z,28.45
2022-10-06T10:02:00.099Z,28.40
2022-10-06T10:04:33.308Z,28.38
2022-10-06T10:07:26.753Z,28.37
2022-10-06T10:09:54.001Z,28.33
2022-10-06T10:12:33.502Z,28.32
2022-10-06T10:15:23.828Z,28.30
2022-10-06T10:17:51.484Z,28.27
2022-10-06T10:20:36.354Z,28.26
2022-10-06T10:23:31.630Z,28.26
2022-10-06T10:26:01.738Z,28.22
2022-10-06T10:28:40.373Z,28.18
2022-10-06T10:31:20.403Z,28.20
2022-10-06T10:34:23.136Z,28.20
2022-10-06T10:36:52.114Z,28.20
2022-10-06T10:39:27.314Z,28.19
2022-10-06T10:41:53.856Z,28.20
2022-10-06T10:44:31.118Z,28.25
2022-10-06T10:47:06.180Z,28.33
2022-10-06T10:49:33.004Z,28.34
2022-10-06T10:52:10.009Z,28.30
2022-10-06T10:54:44.793Z,28.20
2022-10-06T10:57:14.008Z,28.04
2022-10-06T10:59:58.691Z,27.87
2022-10-06T11:02:25.391Z,27.65
2022-10-06T11:04:58.227Z,27.43
2022-10-06T11:07:39.258Z,27.20
2022-10-06T11:10:23.177Z,26.95
2022-10-06T11:13:15.003Z,26.70
2022-10-06T11:15:46.663Z,26.46
2022-10-06T11:18:35.162Z,26.22
2022-10-06T11:21:34.656Z,25.95
2022-10-06T11:24:06.854Z,25.70
2022-10-06T11:26:41.173Z,25.48
2022-10-06T11:29:35.246Z,25.30
2022-10-06T11:32:41.784Z,25.16
2022-10-06T11:35:19.692Z,25.07
2022-10-06T11:38:00.314Z,25.08
2022-10-06T11:41:09.758Z,25.19
2022-10-06T11:43:46.845Z,25.41
2022-10-06T11:46:13.330Z,25.59
2022-10-06T11:48:40.580Z,25.76
2022-10-06T11:51:25.432Z,25.91
2022-10-06T11:53:52.435Z,26.08
2022-10-06T11:56:19.363Z,26.22
2022-10-06T11:58:52.060Z,26.31
2022-10-06T12:01:30.778Z,26.35
2022-10-06T12:04:09.667Z,26.32
2022-10-06T12:06:42.501Z,26.23
2022-10-06T12:09:28.775Z,26.12
2022-10-06T12:12:01.758Z,25.96
2022-10-06T12:17:36.088Z,25.59
2022-10-06T12:20:21.238Z,25.43
2022-10-06T12:22:50.858Z,25.32
2022-10-06T12:25:49.580Z,25.23
2022-10-06T12:28:35.856Z,25.17
2022-10-06T12:31:21.396Z,25.14
2022-10-06T12:33:48.416Z,25.15
2022-10-06T12:36:28.694Z,25.18
2022-10-06T12:39:05.183Z,25.18
2022-10-06T12:41:54.664Z,25.16
2022-10-06T12:44:23.096Z,25.11
2022-10-06T12:46:49.691Z,25.05
2022-10-06T12:50:00.415Z,24.97
2022-10-06T12:52:34.576Z,24.88
2022-10-06T12:55:29.068Z,24.79
2022-10-06T12:57:55.957Z,24.72
2022-10-06T13:00:39.772Z,24.65
2022-10-06T13:03:08.992Z,24.60
2022-10-06T13:05:35.807Z,24.57
2022-10-06T13:08:03.340Z,24.55
2022-10-06T13:10:30.137Z,24.55
2022-10-06T13:12:58.138Z,24.58
2022-10-06T13:15:33.422Z,24.62
2022-10-06T13:18:03.739Z,24.65
2022-10-06T13:20:35.625Z,24.66
2022-10-06T13:23:17.225Z,24.67
2022-10-06T13:25:48.281Z,24.63
2022-10-06T13:28:27.483Z,24.58
2022-10-06T13:33:36.252Z,24.49
2022-10-06T13:36:03.051Z,24.44
2022-10-06T13:38:34.879Z,24.37
2022-10-06T13:41:05.455Z,24.27
2022-10-06T13:43:35.074Z,24.18
2022-10-06T13:46:08.701Z,24.06
2022-10-06T13:48:35.208Z,23.93
2022-10-06T13:51:03.519Z,23.81
2022-10-06T13:53:31.413Z,23.68
2022-10-06T13:55:59.127Z,23.55
2022-10-06T13:58:27.696Z,23.44
2022-10-06T14:00:57.827Z,23.33
2022-10-06T14:03:29.000Z,23.23
2022-10-06T14:06:09.321Z,23.13
2022-10-06T14:08:36.127Z,23.05
2022-10-06T14:11:04.944Z,22.96
2022-10-06T14:13:35.029Z,22.86
2022-10-06T14:16:06.432Z,22.75
2022-10-06T14:18:36.602Z,22.66
2022-10-06T14:21:19.519Z,22.57
2022-10-06T14:23:50.810Z,22.49
2022-10-06T14:26:19.105Z,22.41
2022-10-06T14:28:51.941Z,22.37
2022-10-06T14:31:22.207Z,22.33
2022-10-06T14:33:51.462Z,22.27
2022-10-06T14:36:28.940Z,22.22
2022-10-06T14:38:56.668Z,22.14
2022-10-06T14:41:55.505Z,22.06
2022-10-06T14:44:22.170Z,22.02
2022-10-06T14:46:48.964Z,21.98
2022-10-06T14:49:16.061Z,21.89
2022-10-06T14:51:43.403Z,21.81
2022-10-06T14:54:10.609Z,21.77
2022-10-06T14:56:39.158Z,21.70
2022-10-06T14:59:07.060Z,21.59
2022-10-06T15:01:34.685Z,21.48
2022-10-06T15:04:03.204Z,21.39
2022-10-06T15:06:48.212Z,21.28
2022-10-06T15:09:15.120Z,21.20
2022-10-06T15:11:41.628Z,21.09
2022-10-06T15:14:08.709Z,21.00
2022-10-06T15:16:37.330Z,20.91
2022-10-06T15:19:05.649Z,20.83
2022-10-06T15:21:33.239Z,20.72
2022-10-06T15:24:02.159Z,20.61
2022-10-06T15:26:47.627Z,20.50
2022-10-06T15:29:14.775Z,20.39
2022-10-06T15:31:43.255Z,20.29
2022-10-06T15:34:12.209Z,20.20
2022-10-06T15:36:42.679Z,20.10
2022-10-06T15:39:13.701Z,20.01
2022-10-06T15:41:41.270Z,19.94
2022-10-06T15:44:09.161Z,19.87
2022-10-06T15:46:39.989Z,19.80
2022-10-06T15:49:11.143Z,19.74
2022-10-06T15:51:57.279Z,19.67
2022-10-06T15:54:27.817Z,19.60
2022-10-06T15:56:59.111Z,19.54
2022-10-06T15:59:26.182Z,19.50
2022-10-06T16:01:57.542Z,19.44
2022-10-06T16:04:47.641Z,19.38
2022-10-06T16:07:18.438Z,19.32
2022-10-06T16:09:46.576Z,19.27
2022-10-06T16:12:16.375Z,19.21
2022-10-06T16:14:43.236Z,19.15
2022-10-06T16:17:10.142Z,19.09
2022-10-06T16:19:37.163Z,19.02
2022-10-06T16:22:04.596Z,18.94
2022-10-06T16:24:31.416Z,18.85
2022-10-06T16:26:59.804Z,18.76
2022-10-06T16:29:27.131Z,18.67
2022-10-06T16:31:53.657Z,18.57
2022-10-06T16:34:20.309Z,18.48
2022-10-06T16:36:47.151Z,18.41
2022-10-06T16:39:15.206Z,18.34
2022-10-06T16:41:41.794Z,18.27
2022-10-06T16:44:08.585Z,18.21
2022-10-06T16:46:35.114Z,18.14
2022-10-06T16:49:02.360Z,18.07
2022-10-06T16:51:35.960Z,18.01
2022-10-06T16:54:07.079Z,17.95
2022-10-06T16:56:40.200Z,17.88
2022-10-06T16:59:12.023Z,17.82
2022-10-06T17:01:38.823Z,17.76
2022-10-06T17:04:16.884Z,17.70
2022-10-06T17:06:57.053Z,17.64
2022-10-06T17:09:25.253Z,17.56
2022-10-06T17:11:56.075Z,17.49
2022-10-06T17:14:22.912Z,17.43
2022-10-06T17:16:51.133Z,17.36
2022-10-06T17:19:18.985Z,17.31
2022-10-06T17:21:48.101Z,17.24
2022-10-06T17:24:18.174Z,17.17
2022-10-06T17:26:46.728Z,17.08
2022-10-06T17:29:16.065Z,17.01
2022-10-06T17:31:43.316Z,16.94
2022-10-06T17:34:12.023Z,16.87
2022-10-06T17:36:39.491Z,16.82
2022-10-06T17:39:06.892Z,16.75
2022-10-06T17:41:35.262Z,16.69
2022-10-06T17:44:03.923Z,16.62
2022-10-06T17:46:41.272Z,16.56
2022-10-06T17:49:09.045Z,16.49
2022-10-06T17:51:37.278Z,16.44
2022-10-06T17:54:05.332Z,16.37
2022-10-06T17:56:35.773Z,16.31
2022-10-06T17:59:07.591Z,16.25
2022-10-06T18:01:34.854Z,16.20
2022-10-06T18:04:03.286Z,16.15
2022-10-06T18:06:30.913Z,16.10
2022-10-06T18:09:00.815Z,16.06
2022-10-06T18:11:35.999Z,16.00
2022-10-06T18:14:07.662Z,15.95
2022-10-06T18:16:39.834Z,15.90
2022-10-06T18:19:11.079Z,15.84
2022-10-06T18:21:41.163Z,15.78
2022-10-06T18:24:10.470Z,15.73
2022-10-06T18:26:38.349Z,15.67
2022-10-06T18:29:05.795Z,15.61
2022-10-06T18:31:32.599Z,15.55
2022-10-06T18:36:46.773Z,15.42
2022-10-06T18:39:13.484Z,15.34
2022-10-06T18:41:41.004Z,15.27
2022-10-06T18:44:08.413Z,15.19
2022-10-06T18:46:54.098Z,15.11
2022-10-06T18:49:22.438Z,15.00
2022-10-06T18:51:57.945Z,14.94
2022-10-06T18:54:31.973Z,14.88
2022-10-06T18:56:58.499Z,14.82
2022-10-06T18:59:31.379Z,14.76
2022-10-06T19:02:00.561Z,14.69
2022-10-06T19:04:27.305Z,14.62
2022-10-06T19:06:54.619Z,14.53
2022-10-06T19:09:23.461Z,14.46
2022-10-06T19:11:58.034Z,14.41
2022-10-06T19:14:31.005Z,14.36
2022-10-06T19:16:59.698Z,14.31
2022-10-06T19:19:27.276Z,14.25
2022-10-06T19:22:01.488Z,14.17
2022-10-06T19:24:41.490Z,14.12
2022-10-06T19:27:13.574Z,14.04
2022-10-06T19:29:44.153Z,13.97
2022-10-06T19:32:10.658Z,13.91
2022-10-06T19:34:37.525Z,13.84
2022-10-06T19:37:04.777Z,13.79
2022-10-06T19:39:32.152Z,13.74
2022-10-06T19:42:17.544Z,13.68
2022-10-06T19:44:44.658Z,13.64
2022-10-06T19:47:13.088Z,13.60
2022-10-06T19:49:39.662Z,13.56
2022-10-06T19:52:08.237Z,13.53
2022-10-06T19:54:35.229Z,13.49
2022-10-06T19:57:05.454Z,13.44
2022-10-06T19:59:32.805Z,13.40
2022-10-06T20:01:59.287Z,13.36
2022-10-06T20:04:26.487Z,13.32
2022-10-06T20:06:53.090Z,13.27
2022-10-06T20:09:21.861Z,13.24
2022-10-06T20:11:49.679Z,13.17
2022-10-06T20:14:21.312Z,13.12
2022-10-06T20:16:49.293Z,13.08
2022-10-06T20:19:16.668Z,13.04
2022-10-06T20:21:43.259Z,13.00
2022-10-06T20:24:22.958Z,12.97
2022-10-06T20:26:50.740Z,12.93
2022-10-06T20:29:22.907Z,12.91
2022-10-06T20:31:54.200Z,12.87
2022-10-06T20:34:22.359Z,12.84
2022-10-06T20:36:53.230Z,12.80
2022-10-06T20:39:41.199Z,12.77
2022-10-06T20:42:12.238Z,12.74
2022-10-06T20:44:42.045Z,12.72
2022-10-06T20:47:09.599Z,12.69
2022-10-06T20:49:36.309Z,12.63
2022-10-06T20:52:03.472Z,12.59
2022-10-06T20:54:35.950Z,12.54
2022-10-06T20:57:04.154Z,12.49
2022-10-06T20:59:30.670Z,12.44
2022-10-06T21:01:59.911Z,12.39
2022-10-06T21:04:30.104Z,12.34
2022-10-06T21:06:57.247Z,12.28
2022-10-06T21:09:24.697Z,12.23
2022-10-06T21:11:51.338Z,12.19
2022-10-06T21:14:18.310Z,12.15
2022-10-06T21:16:45.718Z,12.13
2022-10-06T21:19:16.738Z,12.11
2022-10-06T21:21:45.734Z,12.09
2022-10-06T21:24:12.464Z,12.09
2022-10-06T21:26:39.189Z,12.07
2022-10-06T21:29:05.686Z,12.05
2022-10-06T21:31:33.521Z,12.02
2022-10-06T21:34:01.364Z,12.00
2022-10-06T21:36:29.214Z,11.97
2022-10-06T21:38:57.244Z,11.95
2022-10-06T21:41:40.463Z,11.93
2022-10-06T21:44:08.884Z,11.90
2022-10-06T21:46:51.225Z,11.85
2022-10-06T21:49:19.428Z,11.83
2022-10-06T21:51:47.193Z,11.79
2022-10-06T21:54:13.973Z,11.73
2022-10-06T21:56:40.750Z,11.68
2022-10-06T21:59:07.488Z,11.62
2022-10-06T22:01:39.124Z,11.59
2022-10-06T22:04:06.513Z,11.56
2022-10-06T22:06:34.413Z,11.53
2022-10-06T22:09:01.025Z,11.47
2022-10-06T22:11:29.180Z,11.43
2022-10-06T22:13:57.340Z,11.39
2022-10-06T22:16:25.525Z,11.37
2022-10-06T22:18:52.597Z,11.35
2022-10-06T22:21:30.249Z,11.32
2022-10-06T22:24:01.424Z,11.29
2022-10-06T22:26:28.658Z,11.25
2022-10-06T22:28:56.072Z,11.21
2022-10-06T22:31:26.035Z,11.16
2022-10-06T22:33:54.668Z,11.12
2022-10-06T22:36:21.149Z,11.07
2022-10-06T22:38:47.860Z,11.03
2022-10-06T22:41:14.423Z,11.00
2022-10-06T22:43:40.938Z,10.95
2022-10-06T22:46:07.913Z,10.88
2022-10-06T22:48:34.494Z,10.84
2022-10-06T22:51:01.100Z,10.80
2022-10-06T22:53:30.439Z,10.77
2022-10-06T22:55:57.744Z,10.76
2022-10-06T22:58:24.678Z,10.75
2022-10-06T23:00:51.338Z,10.75
2022-10-06T23:03:18.224Z,10.74
2022-10-06T23:05:58.194Z,10.74
2022-10-06T23:08:25.092Z,10.72
2022-10-06T23:10:51.940Z,10.68
2022-10-06T23:13:18.639Z,10.66
2022-10-06T23:15:45.179Z,10.64
2022-10-06T23:18:11.821Z,10.64
2022-10-06T23:20:38.638Z,10.63
2022-10-06T23:23:05.229Z,10.61
2022-10-06T23:25:31.971Z,10.60
2022-10-06T23:27:58.825Z,10.59
2022-10-06T23:30:25.667Z,10.57
2022-10-06T23:32:52.187Z,10.57
2022-10-06T23:35:18.967Z,10.56
2022-10-06T23:37:45.838Z,10.57
2022-10-06T23:40:12.828Z,10.56
2022-10-06T23:42:39.572Z,10.57
2022-10-06T23:45:07.711Z,10.56
2022-10-06T23:47:34.275Z,10.56
2022-10-06T23:50:01.146Z,10.56
2022-10-06T23:52:27.721Z,10.55
2022-10-06T23:54:54.147Z,10.53
2022-10-06T23:57:20.899Z,10.51
2022-10-06T23:59:47.692Z,10.48
